createdAt,value
2022-08-26T00:01:08.457Z,8.13
2022-08-26T00:03:12.824Z,7.63
2022-08-26T00:05:16.601Z,11.20
2022-08-26T00:07:19.388Z,6.28
2022-08-26T00:09:22.986Z,9.45
2022-08-26T00:11:28.251Z,10.32
2022-08-26T00:13:31.527Z,8.57
2022-08-26T00:15:34.295Z,7.75
2022-08-26T00:17:37.106Z,6.75
2022-08-26T00:19:51.862Z,14.13
2022-08-26T00:21:56.182Z,7.97
2022-08-26T00:23:58.743Z,10.63
2022-08-26T00:26:03.620Z,13.55
2022-08-26T00:28:07.275Z,9.68
2022-08-26T00:30:14.942Z,6.45
2022-08-26T00:32:17.666Z,10.20
2022-08-26T00:34:20.335Z,8.88
2022-08-26T00:36:22.986Z,6.97
2022-08-26T00:38:26.272Z,10.25
2022-08-26T00:40:35.582Z,8.95
2022-08-26T00:42:38.526Z,9.50
2022-08-26T00:44:48.693Z,10.98
2022-08-26T00:47:01.139Z,7.00
2022-08-26T00:49:13.846Z,10.45
2022-08-26T00:51:20.163Z,6.35
2022-08-26T00:53:27.966Z,19.35
2022-08-26T00:55:41.170Z,10.70
2022-08-26T00:57:44.894Z,11.82
2022-08-26T00:59:52.968Z,17.45
2022-08-26T01:01:57.059Z,16.35
2022-08-26T01:04:00.311Z,22.58
2022-08-26T01:06:04.068Z,15.85
2022-08-26T01:08:08.368Z,10.95
2022-08-26T01:10:15.587Z,16.25
2022-08-26T01:12:22.008Z,12.18
2022-08-26T01:14:29.678Z,12.88
2022-08-26T01:16:33.547Z,11.95
2022-08-26T01:18:36.499Z,8.85
2022-08-26T01:20:58.325Z,9.93
2022-08-26T01:23:07.111Z,10.32
2022-08-26T01:25:12.182Z,11.63
2022-08-26T01:27:18.522Z,12.10
2022-08-26T01:29:21.289Z,9.48
2022-08-26T01:31:26.585Z,7.32
2022-08-26T01:33:47.678Z,10.27
2022-08-26T01:35:51.440Z,10.73
2022-08-26T01:37:55.404Z,9.27
2022-08-26T01:39:58.160Z,10.60
2022-08-26T01:42:03.512Z,8.80
2022-08-26T01:44:09.792Z,14.18
2022-08-26T01:46:14.707Z,13.25
2022-08-26T01:48:23.354Z,8.82
2022-08-26T01:50:30.702Z,13.23
2022-08-26T01:52:38.664Z,13.20
2022-08-26T01:54:41.227Z,7.43
2022-08-26T01:56:49.823Z,11.63
2022-08-26T01:58:58.411Z,10.57
2022-08-26T02:01:01.304Z,10.70
2022-08-26T02:03:19.110Z,12.50
2022-08-26T02:05:22.324Z,11.10
2022-08-26T02:07:26.699Z,9.23
2022-08-26T02:09:29.677Z,12.82
2022-08-26T02:11:34.343Z,9.75
2022-08-26T02:13:43.979Z,9.90
2022-08-26T02:15:47.806Z,13.68
2022-08-26T02:17:52.683Z,15.40
2022-08-26T02:19:56.539Z,10.88
2022-08-26T02:22:03.646Z,13.05
2022-08-26T02:24:15.284Z,12.23
2022-08-26T02:28:22.247Z,14.27
2022-08-26T02:30:32.220Z,11.15
2022-08-26T02:32:35.257Z,13.65
2022-08-26T02:34:37.894Z,15.57
2022-08-26T02:36:41.187Z,18.35
2022-08-26T02:38:43.775Z,17.27
2022-08-26T02:40:48.815Z,18.88
2022-08-26T02:42:55.976Z,21.10
2022-08-26T02:44:59.957Z,14.32
2022-08-26T02:47:03.516Z,15.13
2022-08-26T02:49:07.833Z,17.83
2022-08-26T02:51:11.567Z,10.80
2022-08-26T02:53:16.440Z,16.00
2022-08-26T02:57:29.531Z,20.33
2022-08-26T02:59:32.747Z,15.65
2022-08-26T03:01:36.697Z,13.85
2022-08-26T03:03:39.239Z,12.95
2022-08-26T03:05:42.746Z,14.10
2022-08-26T03:07:46.027Z,14.70
2022-08-26T03:09:48.633Z,17.17
2022-08-26T03:11:55.681Z,14.02
2022-08-26T03:13:59.210Z,11.63
2022-08-26T03:16:05.409Z,14.43
2022-08-26T03:18:08.047Z,14.45
2022-08-26T03:20:11.548Z,13.02
2022-08-26T03:22:16.238Z,13.50
2022-08-26T03:24:18.904Z,9.80
2022-08-26T03:26:21.548Z,18.20
2022-08-26T03:28:24.262Z,13.07
2022-08-26T03:30:44.873Z,15.70
2022-08-26T03:32:48.232Z,13.57
2022-08-26T03:34:50.940Z,11.48
2022-08-26T03:36:54.420Z,19.13
2022-08-26T03:38:57.928Z,16.63
2022-08-26T03:41:01.209Z,13.07
2022-08-26T03:43:06.402Z,13.07
2022-08-26T03:45:14.699Z,15.18
2022-08-26T03:47:17.942Z,11.68
2022-08-26T03:49:20.711Z,10.98
2022-08-26T03:51:23.623Z,11.95
2022-08-26T03:53:27.155Z,15.50
2022-08-26T03:55:34.182Z,13.18
2022-08-26T03:57:36.957Z,10.25
2022-08-26T03:59:41.300Z,10.20
2022-08-26T04:01:44.037Z,11.57
2022-08-26T04:04:00.491Z,10.57
2022-08-26T04:06:04.098Z,15.05
2022-08-26T04:08:07.429Z,10.93
2022-08-26T04:10:12.106Z,11.45
2022-08-26T04:12:15.791Z,17.08
2022-08-26T04:14:22.413Z,10.30
2022-08-26T04:16:26.069Z,13.60
2022-08-26T04:18:33.208Z,18.33
2022-08-26T04:20:39.983Z,14.10
2022-08-26T04:22:42.570Z,10.98
2022-08-26T04:24:46.691Z,11.68
2022-08-26T04:26:50.499Z,13.82
2022-08-26T04:28:55.079Z,16.70
2022-08-26T04:30:58.036Z,15.95
2022-08-26T04:33:00.740Z,11.45
2022-08-26T04:35:05.122Z,10.45
2022-08-26T04:37:09.701Z,11.00
2022-08-26T04:39:16.792Z,12.77
2022-08-26T04:41:21.869Z,14.45
2022-08-26T04:43:30.744Z,16.70
2022-08-26T04:45:40.709Z,11.88
2022-08-26T04:47:43.339Z,11.50
2022-08-26T04:49:46.073Z,7.70
2022-08-26T04:51:52.954Z,13.35
2022-08-26T04:53:57.381Z,11.88
2022-08-26T04:56:00.111Z,10.93
2022-08-26T04:58:02.869Z,15.38
2022-08-26T05:00:09.001Z,10.50
2022-08-26T05:02:12.050Z,8.55
2022-08-26T05:04:16.267Z,11.60
2022-08-26T05:06:22.022Z,13.30
2022-08-26T05:08:25.089Z,9.35
2022-08-26T05:10:29.179Z,8.48
2022-08-26T05:12:32.025Z,11.43
2022-08-26T05:14:34.539Z,12.82
2022-08-26T05:16:40.323Z,8.63
2022-08-26T05:18:45.122Z,8.63
2022-08-26T05:20:54.629Z,10.25
2022-08-26T05:23:00.835Z,9.23
2022-08-26T05:25:03.546Z,7.22
2022-08-26T05:27:07.425Z,8.43
2022-08-26T05:29:14.440Z,10.27
2022-08-26T05:31:24.404Z,7.00
2022-08-26T05:33:27.130Z,9.70
2022-08-26T05:35:32.230Z,12.82
2022-08-26T05:37:38.039Z,11.50
2022-08-26T05:39:41.312Z,8.75
2022-08-26T05:41:46.155Z,9.30
2022-08-26T05:43:48.723Z,16.67
2022-08-26T05:45:51.584Z,11.23
2022-08-26T05:47:54.482Z,12.07
2022-08-26T05:49:57.124Z,11.82
2022-08-26T05:51:59.744Z,9.82
2022-08-26T05:54:03.742Z,6.32
2022-08-26T05:56:08.608Z,10.73
2022-08-26T05:58:12.608Z,11.90
2022-08-26T06:00:16.306Z,12.15
2022-08-26T06:02:19.409Z,14.13
2022-08-26T06:04:28.549Z,14.90
2022-08-26T06:06:35.703Z,10.80
2022-08-26T06:08:38.362Z,14.95
2022-08-26T06:11:05.989Z,9.00
2022-08-26T06:13:11.828Z,7.68
2022-08-26T06:15:15.848Z,8.80
2022-08-26T06:17:18.579Z,7.03
2022-08-26T06:19:22.100Z,15.02
2022-08-26T06:21:30.493Z,18.75
2022-08-26T06:23:51.978Z,13.25
2022-08-26T06:25:54.754Z,11.43
2022-08-26T06:27:57.395Z,11.55
2022-08-26T06:29:59.991Z,11.55
2022-08-26T06:32:03.829Z,10.02
2022-08-26T06:34:10.530Z,12.38
2022-08-26T06:36:22.993Z,12.85
2022-08-26T06:38:26.164Z,11.80
2022-08-26T06:40:29.075Z,23.52
2022-08-26T06:42:33.236Z,14.02
2022-08-26T06:44:36.595Z,9.38
2022-08-26T06:46:40.268Z,8.82
2022-08-26T06:48:43.958Z,12.73
2022-08-26T06:50:47.742Z,20.13
2022-08-26T06:52:54.016Z,11.85
2022-08-26T06:54:58.836Z,12.88
2022-08-26T06:57:01.574Z,11.65
2022-08-26T06:59:04.865Z,11.30
2022-08-26T07:01:25.496Z,9.95
2022-08-26T07:03:28.389Z,10.18
2022-08-26T07:05:32.492Z,9.57
2022-08-26T07:07:35.665Z,11.50
2022-08-26T07:09:39.192Z,9.15
2022-08-26T07:11:42.780Z,10.30
2022-08-26T07:13:50.881Z,9.77
2022-08-26T07:15:58.384Z,7.82
2022-08-26T07:18:09.688Z,10.00
2022-08-26T07:20:16.222Z,10.88
2022-08-26T07:22:20.186Z,16.92
2022-08-26T07:24:23.827Z,18.15
2022-08-26T07:26:31.864Z,9.93
2022-08-26T07:28:35.023Z,9.80
2022-08-26T07:30:41.372Z,11.23
2022-08-26T07:32:44.490Z,12.98
2022-08-26T07:34:47.161Z,8.55
2022-08-26T07:36:51.725Z,13.35
2022-08-26T07:38:55.265Z,12.13
2022-08-26T07:40:57.829Z,9.70
2022-08-26T07:43:01.121Z,10.85
2022-08-26T07:45:05.243Z,11.45
2022-08-26T07:47:10.065Z,7.25
2022-08-26T07:49:28.091Z,6.75
2022-08-26T07:51:31.741Z,12.20
2022-08-26T07:53:35.201Z,9.35
2022-08-26T07:55:38.527Z,12.48
2022-08-26T07:57:42.391Z,15.75
2022-08-26T07:59:44.989Z,7.30
2022-08-26T08:01:48.510Z,13.40
2022-08-26T08:03:53.485Z,12.07
2022-08-26T08:05:56.917Z,13.40
2022-08-26T08:08:27.246Z,9.45
2022-08-26T08:10:26.693Z,12.43
2022-08-26T08:12:29.365Z,9.10
2022-08-26T08:14:31.958Z,10.50
2022-08-26T08:16:36.333Z,12.93
2022-08-26T08:18:40.856Z,11.75
2022-08-26T08:20:47.733Z,7.65
2022-08-26T08:23:07.273Z,13.23
2022-08-26T08:25:10.661Z,14.95
2022-08-26T08:27:14.072Z,7.90
2022-08-26T08:29:16.626Z,8.32
2022-08-26T08:31:52.122Z,12.98
2022-08-26T08:33:48.849Z,22.50
2022-08-26T08:35:55.263Z,10.60
2022-08-26T08:37:58.121Z,15.20
2022-08-26T08:40:00.884Z,14.82
2022-08-26T08:42:06.667Z,11.45
2022-08-26T08:44:15.701Z,11.55
2022-08-26T08:46:22.932Z,15.20
2022-08-26T08:50:41.287Z,11.80
2022-08-26T08:52:50.209Z,11.18
2022-08-26T08:54:54.027Z,15.95
2022-08-26T08:57:04.010Z,9.63
2022-08-26T08:59:51.019Z,9.85
2022-08-26T09:02:15.361Z,17.38
2022-08-26T09:04:30.178Z,8.82
2022-08-26T09:06:32.894Z,9.85
2022-08-26T09:08:37.109Z,16.05
2022-08-26T09:10:49.881Z,14.88
2022-08-26T09:12:53.033Z,8.10
2022-08-26T09:15:03.338Z,14.65
2022-08-26T09:17:40.372Z,13.68
2022-08-26T09:19:54.650Z,15.35
2022-08-26T09:21:59.175Z,7.38
2022-08-26T09:24:01.834Z,8.00
2022-08-26T09:26:29.334Z,9.00
2022-08-26T09:28:33.457Z,11.00
2022-08-26T09:30:36.598Z,9.52
2022-08-26T09:32:39.352Z,9.30
2022-08-26T09:35:00.288Z,6.63
2022-08-26T09:39:28.216Z,7.63
2022-08-26T09:41:34.131Z,6.60
2022-08-26T09:43:37.104Z,8.43
2022-08-26T09:45:50.138Z,7.47
2022-08-26T09:47:57.254Z,10.07
2022-08-26T09:50:29.268Z,7.63
2022-08-26T09:52:32.111Z,9.90
2022-08-26T09:54:35.355Z,7.40
2022-08-26T09:56:39.396Z,7.25
2022-08-26T09:58:45.077Z,9.25
2022-08-26T10:00:56.760Z,5.05
2022-08-26T10:03:01.742Z,9.43
2022-08-26T10:05:09.645Z,4.55
2022-08-26T10:07:13.399Z,6.22
2022-08-26T10:09:18.942Z,9.10
2022-08-26T10:11:39.937Z,5.88
2022-08-26T10:13:51.103Z,6.05
2022-08-26T10:16:01.941Z,8.13
2022-08-26T10:18:13.372Z,5.95
2022-08-26T10:20:23.435Z,5.70
2022-08-26T10:22:44.410Z,8.23
2022-08-26T10:24:56.429Z,5.45
2022-08-26T10:27:14.598Z,6.95
2022-08-26T10:29:23.489Z,5.07
2022-08-26T10:31:40.095Z,5.38
2022-08-26T10:33:43.363Z,5.40
2022-08-26T10:35:53.702Z,12.25
2022-08-26T10:38:01.892Z,5.13
2022-08-26T10:40:14.645Z,3.50
2022-08-26T10:42:30.433Z,10.60
2022-08-26T10:44:37.649Z,4.75
2022-08-26T10:47:12.984Z,5.95
2022-08-26T10:49:18.196Z,9.63
2022-08-26T10:51:29.790Z,5.93
2022-08-26T10:53:56.742Z,6.65
2022-08-26T10:56:18.694Z,6.53
2022-08-26T10:59:12.257Z,5.50
2022-08-26T11:01:47.032Z,3.08
2022-08-26T11:04:22.771Z,3.70
2022-08-26T11:06:30.705Z,5.25
2022-08-26T11:08:33.535Z,4.70
2022-08-26T11:10:38.669Z,6.53
2022-08-26T11:12:42.036Z,5.97
2022-08-26T11:14:53.425Z,6.47
2022-08-26T11:17:00.420Z,6.93
2022-08-26T11:19:04.050Z,8.23
2022-08-26T11:21:51.456Z,6.28
2022-08-26T11:23:53.989Z,5.70
2022-08-26T11:25:57.472Z,9.63
2022-08-26T11:28:00.933Z,4.60
2022-08-26T11:30:19.732Z,4.63
2022-08-26T11:32:48.786Z,8.68
2022-08-26T11:34:56.374Z,6.93
2022-08-26T11:37:01.633Z,6.13
2022-08-26T11:39:36.817Z,4.72
2022-08-26T11:41:46.550Z,9.63
2022-08-26T11:43:52.347Z,5.45
2022-08-26T11:46:07.338Z,9.90
2022-08-26T11:48:31.305Z,7.72
2022-08-26T11:50:34.249Z,4.88
2022-08-26T11:52:37.491Z,5.57
2022-08-26T11:54:40.318Z,6.15
2022-08-26T11:56:48.868Z,10.02
2022-08-26T11:58:56.603Z,7.63
2022-08-26T12:01:09.908Z,15.90
2022-08-26T12:03:21.542Z,8.77
2022-08-26T12:05:31.156Z,7.05
2022-08-26T12:07:34.288Z,6.45
2022-08-26T12:09:50.383Z,6.15
2022-08-26T12:11:57.998Z,5.10
2022-08-26T12:14:07.442Z,8.27
2022-08-26T12:16:10.648Z,7.90
2022-08-26T12:18:29.291Z,7.07
2022-08-26T12:20:48.802Z,7.13
2022-08-26T12:22:52.812Z,10.93
2022-08-26T12:25:05.382Z,12.60
2022-08-26T12:27:19.055Z,5.30
2022-08-26T12:29:28.368Z,7.78
2022-08-26T12:31:38.084Z,8.38
2022-08-26T12:33:41.190Z,5.95
2022-08-26T12:35:44.652Z,6.75
2022-08-26T12:37:51.593Z,7.05
2022-08-26T12:39:54.639Z,7.97
2022-08-26T12:42:05.844Z,4.30
2022-08-26T12:44:08.726Z,8.40
2022-08-26T12:46:18.729Z,5.03
2022-08-26T12:48:30.722Z,6.50
2022-08-26T12:50:38.161Z,7.93
2022-08-26T12:52:51.942Z,9.45
2022-08-26T12:55:00.433Z,5.90
2022-08-26T12:57:10.962Z,8.98
2022-08-26T12:59:24.085Z,5.30
2022-08-26T13:01:26.900Z,7.93
2022-08-26T13:03:38.588Z,5.22
2022-08-26T13:05:41.567Z,8.07
2022-08-26T13:07:44.256Z,9.93
2022-08-26T13:09:47.233Z,5.57
2022-08-26T13:11:50.025Z,7.20
2022-08-26T13:14:08.215Z,8.68
2022-08-26T13:16:12.257Z,8.02
2022-08-26T13:18:14.916Z,5.93
2022-08-26T13:20:17.543Z,7.95
2022-08-26T13:22:24.477Z,6.15
2022-08-26T13:24:34.020Z,9.85
2022-08-26T13:26:36.617Z,9.70
2022-08-26T13:28:39.401Z,8.27
2022-08-26T13:30:46.162Z,8.80
2022-08-26T13:32:49.190Z,7.30
2022-08-26T13:34:55.407Z,10.90
2022-08-26T13:36:58.626Z,8.23
2022-08-26T13:39:01.270Z,9.57
2022-08-26T13:41:05.052Z,10.68
2022-08-26T13:43:07.778Z,10.65
2022-08-26T13:45:11.351Z,8.18
2022-08-26T13:47:14.642Z,10.82
2022-08-26T13:49:17.380Z,6.53
2022-08-26T13:51:22.641Z,8.00
2022-08-26T13:53:25.647Z,6.15
2022-08-26T13:55:28.813Z,10.13
2022-08-26T13:57:31.491Z,7.55
2022-08-26T13:59:34.176Z,12.23
2022-08-26T14:01:37.478Z,7.07
2022-08-26T14:03:40.270Z,9.68
2022-08-26T14:05:44.846Z,7.25
2022-08-26T14:07:47.741Z,9.63
2022-08-26T14:09:50.606Z,7.60
2022-08-26T14:11:54.449Z,10.50
2022-08-26T14:13:57.579Z,10.75
2022-08-26T14:16:01.811Z,5.10
2022-08-26T14:18:07.794Z,8.60
2022-08-26T14:20:18.668Z,9.10
2022-08-26T14:22:22.776Z,7.03
2022-08-26T14:24:25.429Z,6.18
2022-08-26T14:26:29.948Z,10.68
2022-08-26T14:28:33.056Z,9.23
2022-08-26T14:30:39.413Z,8.88
2022-08-26T14:32:45.883Z,7.30
2022-08-26T14:34:48.739Z,7.70
2022-08-26T14:36:51.432Z,10.30
2022-08-26T14:38:55.861Z,10.15
2022-08-26T14:40:58.708Z,5.20
2022-08-26T14:43:01.736Z,7.13
2022-08-26T14:45:07.675Z,9.30
2022-08-26T14:47:11.563Z,7.00
2022-08-26T14:49:16.383Z,6.25
2022-08-26T14:51:21.729Z,7.10
2022-08-26T14:53:44.230Z,9.80
2022-08-26T14:55:47.274Z,8.73
2022-08-26T14:57:50.067Z,9.32
2022-08-26T14:59:52.758Z,7.60
2022-08-26T15:01:56.570Z,10.13
2022-08-26T15:04:01.528Z,8.02
2022-08-26T15:06:05.597Z,11.48
2022-08-26T15:08:11.151Z,10.77
2022-08-26T15:10:16.329Z,10.73
2022-08-26T15:12:19.009Z,12.48
2022-08-26T15:14:22.367Z,9.63
2022-08-26T15:16:25.565Z,9.70
2022-08-26T15:18:28.355Z,7.35
2022-08-26T15:22:42.566Z,7.93
2022-08-26T15:24:46.013Z,12.50
2022-08-26T15:26:49.068Z,10.30
2022-08-26T15:28:51.973Z,18.50
2022-08-26T15:30:54.982Z,7.85
2022-08-26T15:32:57.674Z,9.60
2022-08-26T15:35:00.417Z,9.90
2022-08-26T15:37:03.201Z,7.30
2022-08-26T15:39:08.141Z,10.57
2022-08-26T15:41:12.608Z,7.72
2022-08-26T15:43:28.394Z,13.43
2022-08-26T15:45:34.834Z,11.50
2022-08-26T15:47:46.624Z,7.50
2022-08-26T15:50:00.394Z,11.63
2022-08-26T15:52:05.324Z,8.45
2022-08-26T15:54:10.338Z,8.23
2022-08-26T15:56:13.376Z,9.73
2022-08-26T15:58:16.391Z,12.68
2022-08-26T16:00:20.974Z,9.05
2022-08-26T16:02:23.602Z,9.48
2022-08-26T16:04:26.826Z,12.15
2022-08-26T16:06:32.295Z,14.77
2022-08-26T16:08:36.508Z,11.23
2022-08-26T16:10:46.505Z,6.28
2022-08-26T16:12:51.994Z,9.32
2022-08-26T16:14:54.602Z,9.90
2022-08-26T16:17:00.327Z,11.40
2022-08-26T16:19:07.304Z,7.50
2022-08-26T16:21:14.809Z,8.95
2022-08-26T16:23:18.388Z,9.80
2022-08-26T16:25:21.081Z,9.00
2022-08-26T16:27:23.871Z,7.70
2022-08-26T16:29:26.929Z,11.00
2022-08-26T16:31:29.764Z,8.45
2022-08-26T16:33:32.465Z,12.38
2022-08-26T16:35:35.671Z,8.10
2022-08-26T16:37:39.407Z,8.73
2022-08-26T16:39:45.085Z,8.60
2022-08-26T16:41:47.924Z,15.68
2022-08-26T16:43:50.734Z,7.65
2022-08-26T16:45:53.422Z,11.90
2022-08-26T16:47:56.119Z,17.05
2022-08-26T16:49:58.804Z,13.48
2022-08-26T16:52:01.490Z,10.75
2022-08-26T16:54:04.658Z,15.52
2022-08-26T16:56:14.738Z,11.70
2022-08-26T16:58:18.603Z,13.38
2022-08-26T17:00:28.378Z,14.90
2022-08-26T17:02:31.046Z,13.27
2022-08-26T17:04:33.836Z,17.52
2022-08-26T17:06:36.492Z,14.18
2022-08-26T17:08:41.211Z,11.07
2022-08-26T17:10:43.926Z,14.80
2022-08-26T17:12:47.023Z,16.05
2022-08-26T17:14:49.772Z,14.38
2022-08-26T17:16:53.758Z,15.02
2022-08-26T17:18:58.336Z,9.95
2022-08-26T17:21:03.968Z,10.82
2022-08-26T17:23:06.726Z,12.48
2022-08-26T17:25:16.038Z,12.40
2022-08-26T17:27:18.624Z,9.80
2022-08-26T17:29:21.208Z,14.55
2022-08-26T17:31:24.543Z,11.27
2022-08-26T17:33:28.329Z,11.32
2022-08-26T17:35:30.979Z,12.20
2022-08-26T17:37:34.929Z,14.93
2022-08-26T17:39:44.063Z,18.98
2022-08-26T17:41:46.786Z,19.15
2022-08-26T17:43:49.781Z,23.70
2022-08-26T17:46:06.628Z,35.42
2022-08-26T17:48:11.411Z,33.92
2022-08-26T17:50:17.169Z,31.80
2022-08-26T17:52:19.872Z,38.53
2022-08-26T17:54:22.424Z,25.73
2022-08-26T17:56:28.953Z,31.48
2022-08-26T17:58:31.544Z,29.15
2022-08-26T18:00:37.352Z,25.67
2022-08-26T18:02:41.059Z,24.80
2022-08-26T18:04:43.957Z,28.05
2022-08-26T18:06:47.114Z,25.02
2022-08-26T18:08:50.435Z,24.25
2022-08-26T18:10:53.161Z,20.67
2022-08-26T18:12:55.817Z,27.63
2022-08-26T18:14:58.534Z,18.23
2022-08-26T18:17:01.899Z,23.83
2022-08-26T18:19:08.477Z,23.35
2022-08-26T18:21:17.107Z,23.52
2022-08-26T18:23:19.676Z,24.85
2022-08-26T18:25:22.470Z,20.95
2022-08-26T18:27:25.097Z,19.90
2022-08-26T18:29:28.081Z,17.52
2022-08-26T18:31:31.034Z,21.15
2022-08-26T18:33:33.834Z,19.38
2022-08-26T18:35:43.422Z,15.43
2022-08-26T18:37:46.229Z,17.58
2022-08-26T18:39:48.867Z,16.45
2022-08-26T18:41:53.436Z,15.20
2022-08-26T18:43:56.355Z,14.35
2022-08-26T18:46:03.950Z,13.80
2022-08-26T18:48:07.009Z,15.02
2022-08-26T18:50:11.078Z,16.20
2022-08-26T18:52:13.717Z,15.38
2022-08-26T18:54:17.010Z,18.85
2022-08-26T18:56:20.039Z,14.55
2022-08-26T18:58:22.907Z,16.40
2022-08-26T19:00:25.590Z,14.00
2022-08-26T19:02:28.484Z,18.08
2022-08-26T19:04:33.400Z,11.65
2022-08-26T19:06:36.513Z,9.70
2022-08-26T19:08:39.205Z,12.80
2022-08-26T19:10:47.666Z,12.90
2022-08-26T19:12:51.923Z,23.45
2022-08-26T19:14:55.128Z,13.88
2022-08-26T19:16:57.803Z,11.15
2022-08-26T19:19:01.623Z,11.32
2022-08-26T19:21:04.473Z,14.55
2022-08-26T19:23:28.108Z,14.02
2022-08-26T19:25:31.493Z,11.07
2022-08-26T19:27:34.096Z,14.45
2022-08-26T19:29:37.971Z,9.45
2022-08-26T19:31:41.577Z,14.30
2022-08-26T19:33:46.711Z,10.35
2022-08-26T19:35:49.432Z,12.88
2022-08-26T19:37:52.011Z,15.05
2022-08-26T19:39:54.625Z,12.60
2022-08-26T19:41:57.552Z,15.32
2022-08-26T19:44:04.706Z,11.23
2022-08-26T19:46:13.668Z,11.10
2022-08-26T19:48:16.424Z,10.48
2022-08-26T19:50:19.150Z,10.90
2022-08-26T19:52:23.400Z,9.73
2022-08-26T19:54:32.530Z,9.63
2022-08-26T19:56:35.205Z,15.90
2022-08-26T19:58:37.899Z,8.98
2022-08-26T20:00:42.580Z,11.00
2022-08-26T20:02:45.451Z,13.38
2022-08-26T20:04:48.348Z,12.63
2022-08-26T20:06:51.784Z,10.35
2022-08-26T20:09:00.778Z,10.48
2022-08-26T20:11:09.608Z,8.55
2022-08-26T20:13:12.411Z,9.05
2022-08-26T20:15:16.996Z,11.00
2022-08-26T20:17:19.720Z,10.00
2022-08-26T20:19:40.914Z,10.25
2022-08-26T20:21:44.386Z,11.52
2022-08-26T20:23:47.499Z,12.52
2022-08-26T20:25:50.192Z,12.43
2022-08-26T20:27:52.845Z,10.65
2022-08-26T20:29:56.467Z,19.17
2022-08-26T20:31:59.272Z,11.13
2022-08-26T20:34:02.803Z,12.50
2022-08-26T20:36:07.758Z,17.20
2022-08-26T20:38:10.747Z,16.65
2022-08-26T20:40:15.070Z,12.05
2022-08-26T20:42:20.372Z,12.38
2022-08-26T20:44:24.667Z,10.93
2022-08-26T20:46:27.943Z,12.73
2022-08-26T20:48:31.358Z,12.05
2022-08-26T20:50:34.395Z,16.27
2022-08-26T20:52:37.103Z,17.02
2022-08-26T20:54:40.616Z,16.75
2022-08-26T20:56:44.021Z,11.98
2022-08-26T20:58:47.213Z,15.35
2022-08-26T21:00:50.542Z,12.13
2022-08-26T21:02:53.913Z,17.30
2022-08-26T21:04:58.133Z,13.73
2022-08-26T21:07:01.229Z,14.15
2022-08-26T21:09:06.547Z,18.27
2022-08-26T21:11:09.731Z,13.68
2022-08-26T21:13:14.558Z,14.50
2022-08-26T21:15:17.711Z,15.13
2022-08-26T21:17:20.714Z,20.23
2022-08-26T21:19:23.976Z,12.25
2022-08-26T21:21:30.128Z,12.68
2022-08-26T21:23:33.741Z,16.33
2022-08-26T21:25:36.479Z,27.42
2022-08-26T21:27:39.261Z,21.17
2022-08-26T21:29:42.020Z,17.20
2022-08-26T21:31:46.754Z,20.13
2022-08-26T21:33:51.100Z,22.85
2022-08-26T21:35:54.387Z,15.73
2022-08-26T21:37:57.129Z,22.38
2022-08-26T21:40:02.184Z,19.55
2022-08-26T21:42:07.208Z,15.13
2022-08-26T21:44:10.932Z,18.13
2022-08-26T21:46:22.075Z,19.77
2022-08-26T21:48:25.095Z,24.48
2022-08-26T21:50:38.421Z,25.98
2022-08-26T21:52:41.062Z,17.38
2022-08-26T21:54:49.559Z,16.20
2022-08-26T21:56:52.820Z,14.32
2022-08-26T21:58:56.662Z,14.20
2022-08-26T22:00:59.617Z,18.92
2022-08-26T22:03:02.319Z,16.85
2022-08-26T22:05:05.437Z,19.55
2022-08-26T22:07:08.046Z,17.00
2022-08-26T22:09:11.814Z,17.52
2022-08-26T22:11:14.814Z,20.13
2022-08-26T22:13:22.432Z,18.60
2022-08-26T22:15:27.827Z,21.70
2022-08-26T22:17:30.527Z,19.05
2022-08-26T22:19:34.095Z,15.10
2022-08-26T22:21:53.695Z,22.02
2022-08-26T22:23:58.433Z,22.92
2022-08-26T22:26:01.485Z,20.20
2022-08-26T22:28:04.681Z,17.15
2022-08-26T22:30:07.785Z,16.83
2022-08-26T22:32:15.234Z,17.08
2022-08-26T22:34:19.764Z,17.65
2022-08-26T22:36:27.340Z,13.07
2022-08-26T22:38:30.600Z,20.60
2022-08-26T22:40:35.106Z,13.85
2022-08-26T22:42:38.699Z,13.18
2022-08-26T22:44:41.479Z,16.13
2022-08-26T22:46:45.473Z,11.75
2022-08-26T22:48:57.530Z,12.90
2022-08-26T22:51:00.436Z,11.77
2022-08-26T22:53:03.322Z,12.77
2022-08-26T22:55:06.733Z,17.48
2022-08-26T22:57:09.419Z,9.38
2022-08-26T22:59:13.020Z,12.73
2022-08-26T23:01:17.071Z,12.55
2022-08-26T23:03:19.948Z,17.25
2022-08-26T23:05:23.386Z,11.60
2022-08-26T23:07:26.056Z,11.85
2022-08-26T23:09:29.411Z,21.65
2022-08-26T23:11:32.518Z,12.25
2022-08-26T23:13:35.525Z,13.05
2022-08-26T23:15:42.305Z,12.50
2022-08-26T23:17:45.162Z,11.98
2022-08-26T23:19:47.861Z,18.10
2022-08-26T23:21:52.061Z,11.10
2022-08-26T23:23:54.651Z,10.70
2022-08-26T23:25:57.360Z,9.77
2022-08-26T23:28:01.926Z,15.32
2022-08-26T23:30:12.284Z,11.40
2022-08-26T23:32:14.952Z,12.48
2022-08-26T23:34:35.894Z,12.85
2022-08-26T23:36:38.767Z,11.70
2022-08-26T23:38:41.910Z,13.07
2022-08-26T23:40:44.604Z,11.02
2022-08-26T23:42:48.021Z,12.75
2022-08-26T23:44:50.802Z,12.88
2022-08-26T23:46:53.553Z,11.18
2022-08-26T23:48:56.174Z,14.43
2022-08-26T23:51:17.457Z,11.10
2022-08-26T23:53:22.481Z,10.13
2022-08-26T23:55:25.702Z,11.95
2022-08-26T23:57:28.339Z,12.88
2022-08-26T23:59:30.965Z,11.45
